sensor_id;sensor_type;location;lat;lon;timestamp;temperature;humidity
23311;DHT22;11828;51.508;18.118;2022-12-18T00:01:20;18.90;24.50
23311;DHT22;11828;51.508;18.118;2022-12-18T00:03:52;18.80;24.40
23311;DHT22;11828;51.508;18.118;2022-12-18T00:06:19;18.90;24.40
23311;DHT22;11828;51.508;18.118;2022-12-18T00:08:46;18.80;24.40
23311;DHT22;11828;51.508;18.118;2022-12-18T00:11:18;18.90;24.50
23311;DHT22;11828;51.508;18.118;2022-12-18T00:13:46;18.90;24.40
23311;DHT22;11828;51.508;18.118;2022-12-18T00:16:17;18.90;24.50
23311;DHT22;11828;51.508;18.118;2022-12-18T00:18:47;18.80;24.40
23311;DHT22;11828;51.508;18.118;2022-12-18T00:21:18;18.90;24.40
23311;DHT22;11828;51.508;18.118;2022-12-18T00:23:45;18.80;24.40
23311;DHT22;11828;51.508;18.118;2022-12-18T00:26:20;18.90;24.40
23311;DHT22;11828;51.508;18.118;2022-12-18T00:28:48;18.90;24.30
23311;DHT22;11828;51.508;18.118;2022-12-18T00:31:18;18.90;24.80
23311;DHT22;11828;51.508;18.118;2022-12-18T00:33:45;18.90;24.40
23311;DHT22;11828;51.508;18.118;2022-12-18T00:36:14;18.90;24.80
23311;DHT22;11828;51.508;18.118;2022-12-18T00:38:43;18.90;24.30
23311;DHT22;11828;51.508;18.118;2022-12-18T00:41:10;18.90;24.30
23311;DHT22;11828;51.508;18.118;2022-12-18T00:43:38;18.90;24.20
23311;DHT22;11828;51.508;18.118;2022-12-18T00:46:05;18.90;24.20
23311;DHT22;11828;51.508;18.118;2022-12-18T00:48:32;18.80;24.20
23311;DHT22;11828;51.508;18.118;2022-12-18T00:50:58;18.70;24.30
23311;DHT22;11828;51.508;18.118;2022-12-18T00:53:24;18.80;24.40
23311;DHT22;11828;51.508;18.118;2022-12-18T00:55:50;18.80;24.90
23311;DHT22;11828;51.508;18.118;2022-12-18T00:58:16;18.70;24.40
23311;DHT22;11828;51.508;18.118;2022-12-18T01:00:43;18.70;24.60
23311;DHT22;11828;51.508;18.118;2022-12-18T01:03:10;18.80;24.30
23311;DHT22;11828;51.508;18.118;2022-12-18T01:05:41;18.80;24.40
23311;DHT22;11828;51.508;18.118;2022-12-18T01:08:07;18.80;24.40
23311;DHT22;11828;51.508;18.118;2022-12-18T01:10:34;18.80;24.30
23311;DHT22;11828;51.508;18.118;2022-12-18T01:12:59;18.70;24.40
23311;DHT22;11828;51.508;18.118;2022-12-18T01:15:26;18.70;24.40
23311;DHT22;11828;51.508;18.118;2022-12-18T01:17:53;18.70;24.40
23311;DHT22;11828;51.508;18.118;2022-12-18T01:20:19;18.70;24.40
23311;DHT22;11828;51.508;18.118;2022-12-18T01:22:45;18.60;24.50
23311;DHT22;11828;51.508;18.118;2022-12-18T01:25:11;18.60;24.40
23311;DHT22;11828;51.508;18.118;2022-12-18T01:27:37;18.60;24.40
23311;DHT22;11828;51.508;18.118;2022-12-18T01:30:04;18.50;24.40
23311;DHT22;11828;51.508;18.118;2022-12-18T01:32:31;18.60;24.50
23311;DHT22;11828;51.508;18.118;2022-12-18T01:34:58;18.60;24.50
23311;DHT22;11828;51.508;18.118;2022-12-18T01:37:24;18.60;24.40
23311;DHT22;11828;51.508;18.118;2022-12-18T01:39:52;18.60;24.20
23311;DHT22;11828;51.508;18.118;2022-12-18T01:42:20;18.50;24.60
23311;DHT22;11828;51.508;18.118;2022-12-18T01:45:05;18.50;24.60
23311;DHT22;11828;51.508;18.118;2022-12-18T01:47:43;18.50;24.50
23311;DHT22;11828;51.508;18.118;2022-12-18T01:50:21;18.60;24.50
23311;DHT22;11828;51.508;18.118;2022-12-18T01:52:53;18.70;24.30
23311;DHT22;11828;51.508;18.118;2022-12-18T01:55:29;18.60;24.20
23311;DHT22;11828;51.508;18.118;2022-12-18T01:57:59;18.60;24.20
23311;DHT22;11828;51.508;18.118;2022-12-18T02:00:26;18.50;24.70
23311;DHT22;11828;51.508;18.118;2022-12-18T02:02:53;18.30;24.20
23311;DHT22;11828;51.508;18.118;2022-12-18T02:05:52;18.20;24.30
23311;DHT22;11828;51.508;18.118;2022-12-18T02:17:36;18.10;24.50
23311;DHT22;11828;51.508;18.118;2022-12-18T02:28:36;18.20;24.60
23311;DHT22;11828;51.508;18.118;2022-12-18T02:31:10;18.10;24.30
23311;DHT22;11828;51.508;18.118;2022-12-18T02:33:39;18.00;24.90
23311;DHT22;11828;51.508;18.118;2022-12-18T02:36:06;17.80;24.40
23311;DHT22;11828;51.508;18.118;2022-12-18T02:38:34;17.70;24.60
23311;DHT22;11828;51.508;18.118;2022-12-18T02:41:00;17.60;24.70
23311;DHT22;11828;51.508;18.118;2022-12-18T02:43:29;17.60;24.80
23311;DHT22;11828;51.508;18.118;2022-12-18T02:45:59;17.60;25.00
23311;DHT22;11828;51.508;18.118;2022-12-18T02:48:33;17.60;25.00
23311;DHT22;11828;51.508;18.118;2022-12-18T02:51:29;17.60;24.90
23311;DHT22;11828;51.508;18.118;2022-12-18T02:54:15;17.60;24.90
23311;DHT22;11828;51.508;18.118;2022-12-18T02:56:53;17.60;25.00
23311;DHT22;11828;51.508;18.118;2022-12-18T02:59:47;17.50;24.90
23311;DHT22;11828;51.508;18.118;2022-12-18T03:02:34;17.50;24.90
23311;DHT22;11828;51.508;18.118;2022-12-18T03:05:40;17.40;24.90
23311;DHT22;11828;51.508;18.118;2022-12-18T03:08:31;17.40;24.90
23311;DHT22;11828;51.508;18.118;2022-12-18T03:11:04;17.40;24.90
23311;DHT22;11828;51.508;18.118;2022-12-18T03:13:37;17.40;24.80
23311;DHT22;11828;51.508;18.118;2022-12-18T03:16:11;17.50;25.00
23311;DHT22;11828;51.508;18.118;2022-12-18T03:18:50;17.50;24.90
23311;DHT22;11828;51.508;18.118;2022-12-18T03:21:26;17.50;24.90
23311;DHT22;11828;51.508;18.118;2022-12-18T03:24:20;17.50;24.80
23311;DHT22;11828;51.508;18.118;2022-12-18T03:26:52;17.60;25.30
23311;DHT22;11828;51.508;18.118;2022-12-18T03:29:24;17.60;24.80
23311;DHT22;11828;51.508;18.118;2022-12-18T03:31:55;17.70;24.80
23311;DHT22;11828;51.508;18.118;2022-12-18T03:34:30;17.80;24.70
23311;DHT22;11828;51.508;18.118;2022-12-18T03:37:02;17.80;24.70
23311;DHT22;11828;51.508;18.118;2022-12-18T03:39:28;17.80;24.60
23311;DHT22;11828;51.508;18.118;2022-12-18T03:45:12;17.90;24.70
23311;DHT22;11828;51.508;18.118;2022-12-18T03:48:01;18.00;24.60
23311;DHT22;11828;51.508;18.118;2022-12-18T03:50:57;18.00;24.50
23311;DHT22;11828;51.508;18.118;2022-12-18T03:53:46;18.00;24.50
23311;DHT22;11828;51.508;18.118;2022-12-18T03:56:18;17.90;24.40
23311;DHT22;11828;51.508;18.118;2022-12-18T03:58:45;17.80;24.40
23311;DHT22;11828;51.508;18.118;2022-12-18T04:01:15;17.80;24.50
23311;DHT22;11828;51.508;18.118;2022-12-18T04:03:43;17.70;24.60
23311;DHT22;11828;51.508;18.118;2022-12-18T04:06:11;17.70;25.10
23311;DHT22;11828;51.508;18.118;2022-12-18T04:08:38;17.70;24.60
23311;DHT22;11828;51.508;18.118;2022-12-18T04:11:05;17.60;24.70
23311;DHT22;11828;51.508;18.118;2022-12-18T04:13:36;17.60;24.70
23311;DHT22;11828;51.508;18.118;2022-12-18T04:16:03;17.70;24.90
23311;DHT22;11828;51.508;18.118;2022-12-18T04:18:30;17.70;24.70
23311;DHT22;11828;51.508;18.118;2022-12-18T04:20:56;17.70;24.70
23311;DHT22;11828;51.508;18.118;2022-12-18T04:23:22;17.70;24.70
23311;DHT22;11828;51.508;18.118;2022-12-18T04:25:48;17.70;24.70
23311;DHT22;11828;51.508;18.118;2022-12-18T04:28:14;17.70;24.90
23311;DHT22;11828;51.508;18.118;2022-12-18T04:30:40;17.70;24.50
23311;DHT22;11828;51.508;18.118;2022-12-18T04:33:13;17.60;24.50
23311;DHT22;11828;51.508;18.118;2022-12-18T04:35:41;17.50;25.10
23311;DHT22;11828;51.508;18.118;2022-12-18T04:38:08;17.40;24.70
23311;DHT22;11828;51.508;18.118;2022-12-18T04:40:36;17.30;25.30
23311;DHT22;11828;51.508;18.118;2022-12-18T04:43:03;17.20;24.90
23311;DHT22;11828;51.508;18.118;2022-12-18T04:45:33;17.10;25.00
23311;DHT22;11828;51.508;18.118;2022-12-18T04:48:00;16.90;25.00
23311;DHT22;11828;51.508;18.118;2022-12-18T04:50:27;16.90;25.10
23311;DHT22;11828;51.508;18.118;2022-12-18T04:52:54;16.80;25.20
23311;DHT22;11828;51.508;18.118;2022-12-18T04:55:21;16.80;25.30
23311;DHT22;11828;51.508;18.118;2022-12-18T04:57:47;16.80;25.10
23311;DHT22;11828;51.508;18.118;2022-12-18T05:00:13;16.80;25.00
23311;DHT22;11828;51.508;18.118;2022-12-18T05:02:40;16.80;25.20
23311;DHT22;11828;51.508;18.118;2022-12-18T05:05:06;16.80;25.70
23311;DHT22;11828;51.508;18.118;2022-12-18T05:07:33;16.80;25.10
23311;DHT22;11828;51.508;18.118;2022-12-18T05:09:59;16.80;25.20
23311;DHT22;11828;51.508;18.118;2022-12-18T05:12:25;16.90;25.30
23311;DHT22;11828;51.508;18.118;2022-12-18T05:14:51;16.90;25.10
23311;DHT22;11828;51.508;18.118;2022-12-18T05:17:17;16.90;25.10
23311;DHT22;11828;51.508;18.118;2022-12-18T05:19:43;16.90;25.10
23311;DHT22;11828;51.508;18.118;2022-12-18T05:22:11;16.80;25.20
23311;DHT22;11828;51.508;18.118;2022-12-18T05:24:37;16.80;25.20
23311;DHT22;11828;51.508;18.118;2022-12-18T05:27:03;16.80;25.20
23311;DHT22;11828;51.508;18.118;2022-12-18T05:29:29;16.90;25.20
23311;DHT22;11828;51.508;18.118;2022-12-18T05:31:56;16.90;25.10
23311;DHT22;11828;51.508;18.118;2022-12-18T05:34:22;17.00;25.10
23311;DHT22;11828;51.508;18.118;2022-12-18T05:36:48;17.00;24.90
23311;DHT22;11828;51.508;18.118;2022-12-18T05:39:14;17.00;25.40
23311;DHT22;11828;51.508;18.118;2022-12-18T05:41:40;16.80;25.30
23311;DHT22;11828;51.508;18.118;2022-12-18T05:44:06;16.80;25.00
23311;DHT22;11828;51.508;18.118;2022-12-18T05:46:32;16.80;25.10
23311;DHT22;11828;51.508;18.118;2022-12-18T05:49:01;16.80;25.00
23311;DHT22;11828;51.508;18.118;2022-12-18T05:51:27;16.70;25.10
23311;DHT22;11828;51.508;18.118;2022-12-18T05:53:54;16.80;25.70
23311;DHT22;11828;51.508;18.118;2022-12-18T05:56:21;16.80;25.10
23311;DHT22;11828;51.508;18.118;2022-12-18T05:58:51;16.80;24.90
23311;DHT22;11828;51.508;18.118;2022-12-18T06:01:22;16.80;25.00
23311;DHT22;11828;51.508;18.118;2022-12-18T06:03:50;16.80;25.00
23311;DHT22;11828;51.508;18.118;2022-12-18T06:06:20;16.60;24.90
23311;DHT22;11828;51.508;18.118;2022-12-18T06:08:48;16.60;25.20
23311;DHT22;11828;51.508;18.118;2022-12-18T06:11:25;16.50;25.10
23311;DHT22;11828;51.508;18.118;2022-12-18T06:13:53;16.50;25.20
23311;DHT22;11828;51.508;18.118;2022-12-18T06:16:20;16.60;25.50
23311;DHT22;11828;51.508;18.118;2022-12-18T06:18:47;16.60;25.30
23311;DHT22;11828;51.508;18.118;2022-12-18T06:21:13;16.60;25.20
23311;DHT22;11828;51.508;18.118;2022-12-18T06:23:39;16.50;25.10
23311;DHT22;11828;51.508;18.118;2022-12-18T06:26:10;16.50;25.20
23311;DHT22;11828;51.508;18.118;2022-12-18T06:28:37;16.50;25.20
23311;DHT22;11828;51.508;18.118;2022-12-18T06:31:04;16.50;25.30
23311;DHT22;11828;51.508;18.118;2022-12-18T06:33:30;16.50;25.20
23311;DHT22;11828;51.508;18.118;2022-12-18T06:36:06;16.40;25.20
23311;DHT22;11828;51.508;18.118;2022-12-18T06:38:35;16.40;25.40
23311;DHT22;11828;51.508;18.118;2022-12-18T06:41:09;16.40;25.40
23311;DHT22;11828;51.508;18.118;2022-12-18T06:43:41;16.40;25.40
23311;DHT22;11828;51.508;18.118;2022-12-18T06:46:08;16.40;25.20
23311;DHT22;11828;51.508;18.118;2022-12-18T06:48:34;16.30;25.00
23311;DHT22;11828;51.508;18.118;2022-12-18T06:51:01;16.20;25.20
23311;DHT22;11828;51.508;18.118;2022-12-18T06:53:28;16.20;25.50
23311;DHT22;11828;51.508;18.118;2022-12-18T06:56:03;16.30;25.50
23311;DHT22;11828;51.508;18.118;2022-12-18T06:58:30;16.30;25.30
23311;DHT22;11828;51.508;18.118;2022-12-18T07:01:04;16.40;25.30
23311;DHT22;11828;51.508;18.118;2022-12-18T07:03:31;16.40;25.20
23311;DHT22;11828;51.508;18.118;2022-12-18T07:05:57;16.50;25.10
23311;DHT22;11828;51.508;18.118;2022-12-18T07:08:24;16.50;25.00
23311;DHT22;11828;51.508;18.118;2022-12-18T07:10:51;16.30;25.10
23311;DHT22;11828;51.508;18.118;2022-12-18T07:13:17;16.20;25.20
23311;DHT22;11828;51.508;18.118;2022-12-18T07:15:43;16.00;25.20
23311;DHT22;11828;51.508;18.118;2022-12-18T07:18:10;16.00;25.30
23311;DHT22;11828;51.508;18.118;2022-12-18T07:20:36;15.90;25.30
23311;DHT22;11828;51.508;18.118;2022-12-18T07:23:03;15.90;25.30
23311;DHT22;11828;51.508;18.118;2022-12-18T07:25:40;15.80;25.50
23311;DHT22;11828;51.508;18.118;2022-12-18T07:28:06;15.70;25.60
23311;DHT22;11828;51.508;18.118;2022-12-18T07:30:33;15.70;25.60
23311;DHT22;11828;51.508;18.118;2022-12-18T07:32:59;15.70;26.20
23311;DHT22;11828;51.508;18.118;2022-12-18T07:35:25;15.70;25.60
23311;DHT22;11828;51.508;18.118;2022-12-18T07:37:51;15.70;25.70
23311;DHT22;11828;51.508;18.118;2022-12-18T07:40:18;15.70;25.70
23311;DHT22;11828;51.508;18.118;2022-12-18T07:42:44;15.80;25.70
23311;DHT22;11828;51.508;18.118;2022-12-18T07:45:10;15.90;25.80
23311;DHT22;11828;51.508;18.118;2022-12-18T07:47:36;16.10;25.60
23311;DHT22;11828;51.508;18.118;2022-12-18T07:50:03;16.20;25.50
23311;DHT22;11828;51.508;18.118;2022-12-18T07:52:30;16.40;25.30
23311;DHT22;11828;51.508;18.118;2022-12-18T07:54:56;16.30;25.20
23311;DHT22;11828;51.508;18.118;2022-12-18T07:57:22;16.30;25.10
23311;DHT22;11828;51.508;18.118;2022-12-18T07:59:48;16.20;25.10
23311;DHT22;11828;51.508;18.118;2022-12-18T08:02:14;16.10;25.30
23311;DHT22;11828;51.508;18.118;2022-12-18T08:04:40;16.10;25.70
23311;DHT22;11828;51.508;18.118;2022-12-18T08:07:06;16.00;25.30
23311;DHT22;11828;51.508;18.118;2022-12-18T08:09:33;15.90;25.30
23311;DHT22;11828;51.508;18.118;2022-12-18T08:11:58;15.80;25.40
23311;DHT22;11828;51.508;18.118;2022-12-18T08:14:25;15.80;25.70
23311;DHT22;11828;51.508;18.118;2022-12-18T08:16:51;15.90;25.80
23311;DHT22;11828;51.508;18.118;2022-12-18T08:19:17;15.90;25.50
23311;DHT22;11828;51.508;18.118;2022-12-18T08:21:43;16.00;25.40
23311;DHT22;11828;51.508;18.118;2022-12-18T08:24:09;16.10;25.50
23311;DHT22;11828;51.508;18.118;2022-12-18T08:26:36;16.20;25.40
23311;DHT22;11828;51.508;18.118;2022-12-18T08:29:03;16.20;25.20
23311;DHT22;11828;51.508;18.118;2022-12-18T08:31:29;16.20;25.30
23311;DHT22;11828;51.508;18.118;2022-12-18T08:33:57;16.30;25.90
23311;DHT22;11828;51.508;18.118;2022-12-18T08:36:23;16.30;25.30
23311;DHT22;11828;51.508;18.118;2022-12-18T08:38:50;16.40;25.20
23311;DHT22;11828;51.508;18.118;2022-12-18T08:41:17;16.30;25.10
23311;DHT22;11828;51.508;18.118;2022-12-18T08:43:44;16.30;25.40
23311;DHT22;11828;51.508;18.118;2022-12-18T08:46:34;16.40;25.30
23311;DHT22;11828;51.508;18.118;2022-12-18T08:49:01;16.40;25.10
23311;DHT22;11828;51.508;18.118;2022-12-18T08:51:27;16.40;25.10
23311;DHT22;11828;51.508;18.118;2022-12-18T08:53:53;16.50;25.90
23311;DHT22;11828;51.508;18.118;2022-12-18T08:56:19;16.50;25.30
23311;DHT22;11828;51.508;18.118;2022-12-18T08:58:46;16.50;25.20
23311;DHT22;11828;51.508;18.118;2022-12-18T09:01:12;16.50;25.20
23311;DHT22;11828;51.508;18.118;2022-12-18T09:03:39;16.40;25.30
23311;DHT22;11828;51.508;18.118;2022-12-18T09:06:05;16.50;25.20
23311;DHT22;11828;51.508;18.118;2022-12-18T09:08:35;16.40;25.20
23311;DHT22;11828;51.508;18.118;2022-12-18T09:11:02;16.40;25.20
23311;DHT22;11828;51.508;18.118;2022-12-18T09:13:29;16.30;25.20
23311;DHT22;11828;51.508;18.118;2022-12-18T09:15:55;16.30;25.40
23311;DHT22;11828;51.508;18.118;2022-12-18T09:18:22;16.30;25.40
23311;DHT22;11828;51.508;18.118;2022-12-18T09:20:49;16.30;25.50
23311;DHT22;11828;51.508;18.118;2022-12-18T09:23:17;16.30;25.40
23311;DHT22;11828;51.508;18.118;2022-12-18T09:25:44;16.20;25.50
23311;DHT22;11828;51.508;18.118;2022-12-18T09:28:15;16.10;25.60
23311;DHT22;11828;51.508;18.118;2022-12-18T09:30:44;15.90;25.60
23311;DHT22;11828;51.508;18.118;2022-12-18T09:33:13;15.80;25.80
23311;DHT22;11828;51.508;18.118;2022-12-18T09:35:40;16.00;25.80
23311;DHT22;11828;51.508;18.118;2022-12-18T09:38:09;16.10;25.80
23311;DHT22;11828;51.508;18.118;2022-12-18T09:40:52;16.10;25.70
23311;DHT22;11828;51.508;18.118;2022-12-18T09:43:41;16.20;25.60
23311;DHT22;11828;51.508;18.118;2022-12-18T09:46:15;16.20;25.60
23311;DHT22;11828;51.508;18.118;2022-12-18T09:48:49;16.30;25.50
23311;DHT22;11828;51.508;18.118;2022-12-18T09:51:33;16.30;25.50
23311;DHT22;11828;51.508;18.118;2022-12-18T09:54:05;16.10;25.50
23311;DHT22;11828;51.508;18.118;2022-12-18T09:56:36;16.30;25.70
23311;DHT22;11828;51.508;18.118;2022-12-18T09:59:05;16.20;25.70
23311;DHT22;11828;51.508;18.118;2022-12-18T10:01:32;16.30;26.00
23311;DHT22;11828;51.508;18.118;2022-12-18T10:03:59;16.20;25.70
23311;DHT22;11828;51.508;18.118;2022-12-18T10:09:33;16.50;25.70
23311;DHT22;11828;51.508;18.118;2022-12-18T10:20:22;16.20;25.90
23311;DHT22;11828;51.508;18.118;2022-12-18T10:28:24;16.30;25.70
23311;DHT22;11828;51.508;18.118;2022-12-18T10:30:51;16.30;25.80
23311;DHT22;11828;51.508;18.118;2022-12-18T10:33:21;16.30;25.60
23311;DHT22;11828;51.508;18.118;2022-12-18T10:35:52;16.40;25.60
23311;DHT22;11828;51.508;18.118;2022-12-18T10:43:32;16.40;25.50
23311;DHT22;11828;51.508;18.118;2022-12-18T10:46:14;16.40;25.50
23311;DHT22;11828;51.508;18.118;2022-12-18T10:48:52;16.50;25.30
23311;DHT22;11828;51.508;18.118;2022-12-18T10:56:34;16.60;25.30
23311;DHT22;11828;51.508;18.118;2022-12-18T10:59:03;16.40;25.90
23311;DHT22;11828;51.508;18.118;2022-12-18T11:04:23;16.00;25.60
23311;DHT22;11828;51.508;18.118;2022-12-18T11:07:00;15.90;25.80
23311;DHT22;11828;51.508;18.118;2022-12-18T11:09:33;15.50;26.00
23311;DHT22;11828;51.508;18.118;2022-12-18T11:12:16;15.50;26.10
23311;DHT22;11828;51.508;18.118;2022-12-18T11:14:49;15.70;26.30
23311;DHT22;11828;51.508;18.118;2022-12-18T11:17:30;15.90;26.20
23311;DHT22;11828;51.508;18.118;2022-12-18T11:20:04;16.10;25.90
23311;DHT22;11828;51.508;18.118;2022-12-18T11:22:35;16.10;25.90
23311;DHT22;11828;51.508;18.118;2022-12-18T11:25:17;16.20;25.80
23311;DHT22;11828;51.508;18.118;2022-12-18T11:27:53;16.20;25.70
23311;DHT22;11828;51.508;18.118;2022-12-18T11:33:00;15.90;25.70
23311;DHT22;11828;51.508;18.118;2022-12-18T11:35:56;15.90;25.90
23311;DHT22;11828;51.508;18.118;2022-12-18T11:38:28;16.10;25.80
23311;DHT22;11828;51.508;18.118;2022-12-18T11:43:33;16.30;26.30
23311;DHT22;11828;51.508;18.118;2022-12-18T11:46:10;16.20;25.40
23311;DHT22;11828;51.508;18.118;2022-12-18T11:48:49;16.40;25.60
23311;DHT22;11828;51.508;18.118;2022-12-18T11:51:35;16.30;25.40
23311;DHT22;11828;51.508;18.118;2022-12-18T11:54:22;16.20;25.50
23311;DHT22;11828;51.508;18.118;2022-12-18T11:57:07;16.30;25.50
23311;DHT22;11828;51.508;18.118;2022-12-18T12:00:20;16.40;25.50
23311;DHT22;11828;51.508;18.118;2022-12-18T12:11:48;16.80;25.00
23311;DHT22;11828;51.508;18.118;2022-12-18T12:14:36;16.80;25.00
23311;DHT22;11828;51.508;18.118;2022-12-18T12:20:21;16.90;25.10
23311;DHT22;11828;51.508;18.118;2022-12-18T12:26:07;17.00;24.90
23311;DHT22;11828;51.508;18.118;2022-12-18T12:40:24;15.50;25.70
23311;DHT22;11828;51.508;18.118;2022-12-18T12:42:56;15.60;26.00
23311;DHT22;11828;51.508;18.118;2022-12-18T12:46:00;15.80;26.00
23311;DHT22;11828;51.508;18.118;2022-12-18T12:48:50;16.10;25.80
23311;DHT22;11828;51.508;18.118;2022-12-18T12:51:26;16.30;25.50
23311;DHT22;11828;51.508;18.118;2022-12-18T12:54:11;16.30;25.30
23311;DHT22;11828;51.508;18.118;2022-12-18T12:56:57;16.00;25.40
23311;DHT22;11828;51.508;18.118;2022-12-18T13:08:27;15.50;26.60
23311;DHT22;11828;51.508;18.118;2022-12-18T13:10:58;15.50;26.10
23311;DHT22;11828;51.508;18.118;2022-12-18T13:14:02;15.60;26.70
23311;DHT22;11828;51.508;18.118;2022-12-18T13:16:27;15.50;26.10
23311;DHT22;11828;51.508;18.118;2022-12-18T13:18:56;15.60;26.20
23311;DHT22;11828;51.508;18.118;2022-12-18T13:21:33;15.40;26.00
23311;DHT22;11828;51.508;18.118;2022-12-18T13:24:25;15.30;26.20
23311;DHT22;11828;51.508;18.118;2022-12-18T13:26:55;15.60;26.30
23311;DHT22;11828;51.508;18.118;2022-12-18T13:29:40;15.50;26.30
23311;DHT22;11828;51.508;18.118;2022-12-18T13:32:23;15.40;26.20
23311;DHT22;11828;51.508;18.118;2022-12-18T13:37:54;15.60;26.40
23311;DHT22;11828;51.508;18.118;2022-12-18T13:43:40;15.80;26.10
23311;DHT22;11828;51.508;18.118;2022-12-18T13:46:23;15.40;26.20
23311;DHT22;11828;51.508;18.118;2022-12-18T13:51:48;15.50;26.30
23311;DHT22;11828;51.508;18.118;2022-12-18T13:54:39;15.70;26.30
23311;DHT22;11828;51.508;18.118;2022-12-18T13:57:28;15.50;26.10
23311;DHT22;11828;51.508;18.118;2022-12-18T13:59:57;15.50;26.60
23311;DHT22;11828;51.508;18.118;2022-12-18T14:02:27;15.30;26.20
23311;DHT22;11828;51.508;18.118;2022-12-18T14:04:54;15.30;26.90
23311;DHT22;11828;51.508;18.118;2022-12-18T14:07:28;15.30;26.50
23311;DHT22;11828;51.508;18.118;2022-12-18T14:09:56;15.20;26.50
23311;DHT22;11828;51.508;18.118;2022-12-18T14:12:31;15.30;26.50
23311;DHT22;11828;51.508;18.118;2022-12-18T14:21:26;14.80;26.70
23311;DHT22;11828;51.508;18.118;2022-12-18T14:24:11;14.50;26.90
23311;DHT22;11828;51.508;18.118;2022-12-18T14:26:40;14.40;27.10
23311;DHT22;11828;51.508;18.118;2022-12-18T14:29:24;14.50;27.20
23311;DHT22;11828;51.508;18.118;2022-12-18T14:32:19;14.60;27.10
23311;DHT22;11828;51.508;18.118;2022-12-18T14:34:51;14.30;27.10
23311;DHT22;11828;51.508;18.118;2022-12-18T14:37:24;14.10;27.30
23311;DHT22;11828;51.508;18.118;2022-12-18T14:39:58;14.20;27.50
23311;DHT22;11828;51.508;18.118;2022-12-18T14:42:28;14.20;27.60
23311;DHT22;11828;51.508;18.118;2022-12-18T14:47:59;14.10;27.30
23311;DHT22;11828;51.508;18.118;2022-12-18T14:50:26;14.20;27.60
23311;DHT22;11828;51.508;18.118;2022-12-18T14:52:52;14.00;27.60
23311;DHT22;11828;51.508;18.118;2022-12-18T14:55:20;14.00;27.80
23311;DHT22;11828;51.508;18.118;2022-12-18T14:57:50;13.90;27.90
23311;DHT22;11828;51.508;18.118;2022-12-18T15:00:23;13.80;28.10
23311;DHT22;11828;51.508;18.118;2022-12-18T15:02:53;13.90;28.10
23311;DHT22;11828;51.508;18.118;2022-12-18T15:05:30;13.90;28.00
23311;DHT22;11828;51.508;18.118;2022-12-18T15:07:59;13.90;28.00
23311;DHT22;11828;51.508;18.118;2022-12-18T15:10:30;14.10;28.00
23311;DHT22;11828;51.508;18.118;2022-12-18T15:20:45;14.00;27.40
23311;DHT22;11828;51.508;18.118;2022-12-18T15:26:00;13.60;28.00
23311;DHT22;11828;51.508;18.118;2022-12-18T15:28:48;13.80;28.00
23311;DHT22;11828;51.508;18.118;2022-12-18T15:31:24;14.00;27.90
23311;DHT22;11828;51.508;18.118;2022-12-18T15:36:25;14.40;27.30
23311;DHT22;11828;51.508;18.118;2022-12-18T15:38:52;14.40;27.40
23311;DHT22;11828;51.508;18.118;2022-12-18T15:41:21;14.30;27.30
23311;DHT22;11828;51.508;18.118;2022-12-18T15:43:48;14.30;27.50
23311;DHT22;11828;51.508;18.118;2022-12-18T15:46:21;14.20;27.50
23311;DHT22;11828;51.508;18.118;2022-12-18T15:48:52;14.10;27.50
23311;DHT22;11828;51.508;18.118;2022-12-18T15:51:20;14.10;27.50
23311;DHT22;11828;51.508;18.118;2022-12-18T15:53:50;13.90;27.50
23311;DHT22;11828;51.508;18.118;2022-12-18T15:56:19;13.80;27.70
23311;DHT22;11828;51.508;18.118;2022-12-18T15:59:12;13.70;27.80
23311;DHT22;11828;51.508;18.118;2022-12-18T16:01:41;13.60;27.90
23311;DHT22;11828;51.508;18.118;2022-12-18T16:04:11;13.50;28.20
23311;DHT22;11828;51.508;18.118;2022-12-18T16:06:39;13.60;28.30
23311;DHT22;11828;51.508;18.118;2022-12-18T16:09:06;13.60;28.20
23311;DHT22;11828;51.508;18.118;2022-12-18T16:11:34;13.80;28.00
23311;DHT22;11828;51.508;18.118;2022-12-18T16:17:03;13.90;27.90
23311;DHT22;11828;51.508;18.118;2022-12-18T16:19:31;13.70;27.80
23311;DHT22;11828;51.508;18.118;2022-12-18T16:21:59;13.70;27.90
23311;DHT22;11828;51.508;18.118;2022-12-18T16:24:28;13.40;27.90
23311;DHT22;11828;51.508;18.118;2022-12-18T16:26:57;13.20;28.30
23311;DHT22;11828;51.508;18.118;2022-12-18T16:29:25;13.20;28.60
23311;DHT22;11828;51.508;18.118;2022-12-18T16:31:54;13.20;28.60
23311;DHT22;11828;51.508;18.118;2022-12-18T16:34:28;13.10;28.60
23311;DHT22;11828;51.508;18.118;2022-12-18T16:37:07;12.70;28.70
23311;DHT22;11828;51.508;18.118;2022-12-18T16:39:34;12.80;29.10
23311;DHT22;11828;51.508;18.118;2022-12-18T16:42:20;12.90;29.20
23311;DHT22;11828;51.508;18.118;2022-12-18T16:44:47;12.90;29.00
23311;DHT22;11828;51.508;18.118;2022-12-18T16:47:15;13.10;29.10
23311;DHT22;11828;51.508;18.118;2022-12-18T16:49:42;13.10;28.90
23311;DHT22;11828;51.508;18.118;2022-12-18T16:52:10;12.90;28.80
23311;DHT22;11828;51.508;18.118;2022-12-18T16:54:36;12.70;29.00
23311;DHT22;11828;51.508;18.118;2022-12-18T16:57:03;12.50;29.20
23311;DHT22;11828;51.508;18.118;2022-12-18T16:59:32;12.70;29.40
23311;DHT22;11828;51.508;18.118;2022-12-18T17:01:59;12.60;29.40
23311;DHT22;11828;51.508;18.118;2022-12-18T17:04:26;12.60;29.40
23311;DHT22;11828;51.508;18.118;2022-12-18T17:06:52;12.70;29.50
23311;DHT22;11828;51.508;18.118;2022-12-18T17:09:19;12.90;29.80
23311;DHT22;11828;51.508;18.118;2022-12-18T17:11:52;13.00;29.20
23311;DHT22;11828;51.508;18.118;2022-12-18T17:14:21;13.10;29.10
23311;DHT22;11828;51.508;18.118;2022-12-18T17:16:48;13.20;29.00
23311;DHT22;11828;51.508;18.118;2022-12-18T17:19:15;13.50;29.00
23311;DHT22;11828;51.508;18.118;2022-12-18T17:21:43;13.40;28.80
23311;DHT22;11828;51.508;18.118;2022-12-18T17:24:09;13.10;28.80
23311;DHT22;11828;51.508;18.118;2022-12-18T17:26:36;13.10;29.10
23311;DHT22;11828;51.508;18.118;2022-12-18T17:29:02;13.00;29.10
23311;DHT22;11828;51.508;18.118;2022-12-18T17:31:29;13.10;29.30
23311;DHT22;11828;51.508;18.118;2022-12-18T17:33:56;13.20;29.30
23311;DHT22;11828;51.508;18.118;2022-12-18T17:36:24;13.20;29.20
23311;DHT22;11828;51.508;18.118;2022-12-18T17:38:55;13.40;29.10
23311;DHT22;11828;51.508;18.118;2022-12-18T17:41:23;13.40;28.90
23311;DHT22;11828;51.508;18.118;2022-12-18T17:43:53;13.20;28.90
23311;DHT22;11828;51.508;18.118;2022-12-18T17:46:21;13.10;29.10